sensor_id;sensor_type;location;lat;lon;timestamp;P1;durP1;ratioP1;P2;durP2;ratioP2
15526;SDS011;7865;50.918;4.510;2023-07-09T00:02:55;10.57;;;6.78;;
15526;SDS011;7865;50.918;4.510;2023-07-09T00:07:57;10.38;;;6.88;;
15526;SDS011;7865;50.918;4.510;2023-07-09T00:12:59;9.20;;;6.95;;
15526;SDS011;7865;50.918;4.510;2023-07-09T00:18:01;8.68;;;6.80;;
15526;SDS011;7865;50.918;4.510;2023-07-09T00:23:02;9.52;;;7.22;;
15526;SDS011;7865;50.918;4.510;2023-07-09T00:28:07;10.93;;;6.70;;
15526;SDS011;7865;50.918;4.510;2023-07-09T00:33:14;9.20;;;7.13;;
15526;SDS011;7865;50.918;4.510;2023-07-09T00:38:17;10.38;;;7.57;;
15526;SDS011;7865;50.918;4.510;2023-07-09T00:43:23;9.55;;;7.03;;
15526;SDS011;7865;50.918;4.510;2023-07-09T00:48:25;14.57;;;7.60;;
15526;SDS011;7865;50.918;4.510;2023-07-09T00:53:29;11.95;;;7.05;;
15526;SDS011;7865;50.918;4.510;2023-07-09T00:58:33;12.05;;;8.02;;
15526;SDS011;7865;50.918;4.510;2023-07-09T01:03:39;13.52;;;8.25;;
15526;SDS011;7865;50.918;4.510;2023-07-09T01:08:45;11.75;;;8.77;;
15526;SDS011;7865;50.918;4.510;2023-07-09T01:13:56;12.23;;;8.82;;
15526;SDS011;7865;50.918;4.510;2023-07-09T01:19:00;10.40;;;9.30;;
15526;SDS011;7865;50.918;4.510;2023-07-09T01:24:45;11.77;;;8.77;;
15526;SDS011;7865;50.918;4.510;2023-07-09T01:29:47;11.02;;;9.40;;
15526;SDS011;7865;50.918;4.510;2023-07-09T01:34:54;12.30;;;9.13;;
15526;SDS011;7865;50.918;4.510;2023-07-09T01:39:59;10.60;;;8.45;;
15526;SDS011;7865;50.918;4.510;2023-07-09T01:45:00;12.45;;;9.63;;
15526;SDS011;7865;50.918;4.510;2023-07-09T01:50:06;12.25;;;9.43;;
15526;SDS011;7865;50.918;4.510;2023-07-09T01:55:09;16.02;;;9.15;;
15526;SDS011;7865;50.918;4.510;2023-07-09T02:00:13;11.32;;;8.43;;
15526;SDS011;7865;50.918;4.510;2023-07-09T02:05:18;11.32;;;9.32;;
15526;SDS011;7865;50.918;4.510;2023-07-09T02:10:20;13.30;;;8.95;;
15526;SDS011;7865;50.918;4.510;2023-07-09T02:15:22;9.55;;;8.25;;
15526;SDS011;7865;50.918;4.510;2023-07-09T02:20:24;13.07;;;8.13;;
15526;SDS011;7865;50.918;4.510;2023-07-09T02:25:27;11.15;;;7.55;;
15526;SDS011;7865;50.918;4.510;2023-07-09T02:30:28;11.32;;;7.45;;
15526;SDS011;7865;50.918;4.510;2023-07-09T02:35:29;11.57;;;8.07;;
15526;SDS011;7865;50.918;4.510;2023-07-09T02:40:31;11.60;;;7.50;;
15526;SDS011;7865;50.918;4.510;2023-07-09T02:45:32;17.23;;;8.02;;
15526;SDS011;7865;50.918;4.510;2023-07-09T02:50:34;10.30;;;8.35;;
15526;SDS011;7865;50.918;4.510;2023-07-09T02:55:35;11.40;;;7.50;;
15526;SDS011;7865;50.918;4.510;2023-07-09T03:00:37;15.10;;;8.18;;
15526;SDS011;7865;50.918;4.510;2023-07-09T03:05:38;13.13;;;8.15;;
15526;SDS011;7865;50.918;4.510;2023-07-09T03:10:40;10.93;;;6.80;;
15526;SDS011;7865;50.918;4.510;2023-07-09T03:15:41;9.77;;;7.00;;
15526;SDS011;7865;50.918;4.510;2023-07-09T03:20:42;10.35;;;6.95;;
15526;SDS011;7865;50.918;4.510;2023-07-09T03:25:44;12.35;;;7.72;;
15526;SDS011;7865;50.918;4.510;2023-07-09T03:30:46;10.63;;;7.10;;
15526;SDS011;7865;50.918;4.510;2023-07-09T03:35:49;13.07;;;7.95;;
15526;SDS011;7865;50.918;4.510;2023-07-09T03:40:55;9.15;;;6.95;;
15526;SDS011;7865;50.918;4.510;2023-07-09T03:45:56;12.27;;;7.70;;
15526;SDS011;7865;50.918;4.510;2023-07-09T03:50:57;10.90;;;6.68;;
15526;SDS011;7865;50.918;4.510;2023-07-09T03:55:58;7.50;;;6.18;;
15526;SDS011;7865;50.918;4.510;2023-07-09T04:01:01;9.13;;;6.30;;
15526;SDS011;7865;50.918;4.510;2023-07-09T04:06:03;9.02;;;6.63;;
15526;SDS011;7865;50.918;4.510;2023-07-09T04:11:05;9.30;;;6.40;;
15526;SDS011;7865;50.918;4.510;2023-07-09T04:16:06;10.85;;;5.82;;
15526;SDS011;7865;50.918;4.510;2023-07-09T04:21:08;8.57;;;6.18;;
15526;SDS011;7865;50.918;4.510;2023-07-09T04:26:12;8.52;;;6.10;;
15526;SDS011;7865;50.918;4.510;2023-07-09T04:31:14;7.60;;;6.15;;
15526;SDS011;7865;50.918;4.510;2023-07-09T04:36:16;9.18;;;6.38;;
15526;SDS011;7865;50.918;4.510;2023-07-09T04:41:17;7.80;;;5.78;;
15526;SDS011;7865;50.918;4.510;2023-07-09T04:46:19;10.80;;;5.88;;
15526;SDS011;7865;50.918;4.510;2023-07-09T04:51:20;9.65;;;5.38;;
15526;SDS011;7865;50.918;4.510;2023-07-09T04:56:22;9.30;;;5.78;;
15526;SDS011;7865;50.918;4.510;2023-07-09T05:01:24;7.30;;;5.80;;
15526;SDS011;7865;50.918;4.510;2023-07-09T05:06:25;10.90;;;6.50;;
15526;SDS011;7865;50.918;4.510;2023-07-09T05:11:26;10.15;;;6.22;;
15526;SDS011;7865;50.918;4.510;2023-07-09T05:16:28;11.18;;;6.07;;
15526;SDS011;7865;50.918;4.510;2023-07-09T05:21:30;9.20;;;6.20;;
15526;SDS011;7865;50.918;4.510;2023-07-09T05:26:31;7.95;;;6.13;;
15526;SDS011;7865;50.918;4.510;2023-07-09T05:31:32;7.70;;;5.65;;
15526;SDS011;7865;50.918;4.510;2023-07-09T05:36:34;13.57;;;6.10;;
15526;SDS011;7865;50.918;4.510;2023-07-09T05:41:35;9.95;;;5.68;;
15526;SDS011;7865;50.918;4.510;2023-07-09T05:46:37;9.20;;;5.57;;
15526;SDS011;7865;50.918;4.510;2023-07-09T05:51:39;11.50;;;5.32;;
15526;SDS011;7865;50.918;4.510;2023-07-09T05:56:40;11.40;;;5.78;;
15526;SDS011;7865;50.918;4.510;2023-07-09T06:01:41;7.55;;;5.35;;
15526;SDS011;7865;50.918;4.510;2023-07-09T06:06:42;10.27;;;6.72;;
15526;SDS011;7865;50.918;4.510;2023-07-09T06:11:44;6.10;;;5.45;;
15526;SDS011;7865;50.918;4.510;2023-07-09T06:16:45;9.20;;;5.10;;
15526;SDS011;7865;50.918;4.510;2023-07-09T06:21:47;6.97;;;5.68;;
15526;SDS011;7865;50.918;4.510;2023-07-09T06:26:48;15.48;;;5.82;;
15526;SDS011;7865;50.918;4.510;2023-07-09T06:31:49;7.60;;;5.32;;
15526;SDS011;7865;50.918;4.510;2023-07-09T06:36:50;10.48;;;5.30;;
15526;SDS011;7865;50.918;4.510;2023-07-09T06:41:52;7.90;;;5.05;;
15526;SDS011;7865;50.918;4.510;2023-07-09T06:47:09;8.13;;;5.70;;
15526;SDS011;7865;50.918;4.510;2023-07-09T06:52:10;11.15;;;5.80;;
15526;SDS011;7865;50.918;4.510;2023-07-09T06:57:12;13.43;;;5.75;;
15526;SDS011;7865;50.918;4.510;2023-07-09T07:02:13;9.27;;;5.32;;
15526;SDS011;7865;50.918;4.510;2023-07-09T07:07:15;8.98;;;4.53;;
15526;SDS011;7865;50.918;4.510;2023-07-09T07:12:26;5.32;;;4.57;;
15526;SDS011;7865;50.918;4.510;2023-07-09T07:17:29;6.57;;;4.35;;
15526;SDS011;7865;50.918;4.510;2023-07-09T07:22:30;11.52;;;5.15;;
15526;SDS011;7865;50.918;4.510;2023-07-09T07:27:31;12.02;;;5.35;;
15526;SDS011;7865;50.918;4.510;2023-07-09T07:32:33;8.32;;;5.97;;
15526;SDS011;7865;50.918;4.510;2023-07-09T07:37:34;10.95;;;6.63;;
15526;SDS011;7865;50.918;4.510;2023-07-09T07:42:35;9.50;;;6.07;;
15526;SDS011;7865;50.918;4.510;2023-07-09T07:47:37;10.23;;;6.47;;
15526;SDS011;7865;50.918;4.510;2023-07-09T07:52:40;15.43;;;9.52;;
15526;SDS011;7865;50.918;4.510;2023-07-09T07:57:41;16.92;;;11.35;;
15526;SDS011;7865;50.918;4.510;2023-07-09T08:02:42;19.95;;;14.02;;
15526;SDS011;7865;50.918;4.510;2023-07-09T08:07:44;26.48;;;22.85;;
15526;SDS011;7865;50.918;4.510;2023-07-09T08:12:45;30.02;;;26.63;;
15526;SDS011;7865;50.918;4.510;2023-07-09T08:17:46;34.25;;;25.17;;
15526;SDS011;7865;50.918;4.510;2023-07-09T08:22:48;31.40;;;24.58;;
15526;SDS011;7865;50.918;4.510;2023-07-09T08:27:49;27.05;;;23.42;;
15526;SDS011;7865;50.918;4.510;2023-07-09T08:32:50;30.58;;;26.23;;
15526;SDS011;7865;50.918;4.510;2023-07-09T08:37:51;28.95;;;23.45;;
15526;SDS011;7865;50.918;4.510;2023-07-09T08:42:54;33.83;;;26.30;;
15526;SDS011;7865;50.918;4.510;2023-07-09T08:48:05;32.35;;;28.85;;
15526;SDS011;7865;50.918;4.510;2023-07-09T08:53:21;32.38;;;28.77;;
15526;SDS011;7865;50.918;4.510;2023-07-09T08:58:32;31.48;;;28.17;;
15526;SDS011;7865;50.918;4.510;2023-07-09T09:08:53;27.48;;;24.17;;
15526;SDS011;7865;50.918;4.510;2023-07-09T09:13:56;34.17;;;27.77;;
15526;SDS011;7865;50.918;4.510;2023-07-09T09:19:02;30.50;;;24.95;;
15526;SDS011;7865;50.918;4.510;2023-07-09T09:24:17;30.10;;;25.08;;
15526;SDS011;7865;50.918;4.510;2023-07-09T09:29:26;32.47;;;27.05;;
15526;SDS011;7865;50.918;4.510;2023-07-09T09:34:28;31.80;;;26.98;;
15526;SDS011;7865;50.918;4.510;2023-07-09T09:39:30;29.55;;;25.25;;
15526;SDS011;7865;50.918;4.510;2023-07-09T09:44:32;31.35;;;27.55;;
15526;SDS011;7865;50.918;4.510;2023-07-09T09:49:41;28.20;;;22.83;;
15526;SDS011;7865;50.918;4.510;2023-07-09T09:54:53;27.50;;;24.55;;
15526;SDS011;7865;50.918;4.510;2023-07-09T09:59:57;30.38;;;24.08;;
15526;SDS011;7865;50.918;4.510;2023-07-09T10:05:00;29.67;;;26.58;;
15526;SDS011;7865;50.918;4.510;2023-07-09T10:10:01;29.02;;;25.30;;
15526;SDS011;7865;50.918;4.510;2023-07-09T10:26:21;24.70;;;22.17;;
15526;SDS011;7865;50.918;4.510;2023-07-09T10:31:07;22.33;;;18.15;;
15526;SDS011;7865;50.918;4.510;2023-07-09T10:41:35;21.23;;;16.33;;
15526;SDS011;7865;50.918;4.510;2023-07-09T10:46:39;14.45;;;12.85;;
15526;SDS011;7865;50.918;4.510;2023-07-09T10:51:49;15.60;;;11.50;;
15526;SDS011;7865;50.918;4.510;2023-07-09T10:56:56;10.52;;;8.93;;
15526;SDS011;7865;50.918;4.510;2023-07-09T11:02:08;11.55;;;8.10;;
15526;SDS011;7865;50.918;4.510;2023-07-09T11:07:20;10.55;;;7.35;;
15526;SDS011;7865;50.918;4.510;2023-07-09T11:12:29;10.30;;;6.47;;
15526;SDS011;7865;50.918;4.510;2023-07-09T11:17:37;8.13;;;6.07;;
15526;SDS011;7865;50.918;4.510;2023-07-09T11:22:41;8.00;;;5.60;;
15526;SDS011;7865;50.918;4.510;2023-07-09T11:27:48;9.82;;;5.50;;
15526;SDS011;7865;50.918;4.510;2023-07-09T11:32:52;10.10;;;5.43;;
15526;SDS011;7865;50.918;4.510;2023-07-09T11:38:19;8.02;;;4.78;;
15526;SDS011;7865;50.918;4.510;2023-07-09T11:43:32;8.43;;;4.25;;
15526;SDS011;7865;50.918;4.510;2023-07-09T11:48:34;6.05;;;4.80;;
15526;SDS011;7865;50.918;4.510;2023-07-09T11:58:52;6.47;;;5.00;;
15526;SDS011;7865;50.918;4.510;2023-07-09T12:03:57;6.57;;;4.35;;
15526;SDS011;7865;50.918;4.510;2023-07-09T12:08:59;7.63;;;5.38;;
15526;SDS011;7865;50.918;4.510;2023-07-09T12:14:02;5.85;;;4.18;;
15526;SDS011;7865;50.918;4.510;2023-07-09T12:19:23;5.20;;;3.97;;
15526;SDS011;7865;50.918;4.510;2023-07-09T12:24:34;5.43;;;3.72;;
15526;SDS011;7865;50.918;4.510;2023-07-09T12:29:37;7.57;;;4.07;;
15526;SDS011;7865;50.918;4.510;2023-07-09T12:34:40;8.45;;;3.95;;
15526;SDS011;7865;50.918;4.510;2023-07-09T12:39:42;9.80;;;5.30;;
15526;SDS011;7865;50.918;4.510;2023-07-09T12:44:44;11.15;;;6.07;;
15526;SDS011;7865;50.918;4.510;2023-07-09T12:49:47;11.35;;;7.93;;
15526;SDS011;7865;50.918;4.510;2023-07-09T12:54:59;8.60;;;6.20;;
15526;SDS011;7865;50.918;4.510;2023-07-09T13:00:05;10.05;;;6.70;;
15526;SDS011;7865;50.918;4.510;2023-07-09T13:05:19;14.30;;;8.70;;
15526;SDS011;7865;50.918;4.510;2023-07-09T13:10:24;13.07;;;9.40;;
15526;SDS011;7865;50.918;4.510;2023-07-09T13:15:31;12.20;;;10.15;;
15526;SDS011;7865;50.918;4.510;2023-07-09T13:20:40;11.52;;;9.27;;
15526;SDS011;7865;50.918;4.510;2023-07-09T13:25:43;17.63;;;9.80;;
15526;SDS011;7865;50.918;4.510;2023-07-09T13:30:53;14.93;;;9.80;;
15526;SDS011;7865;50.918;4.510;2023-07-09T13:35:57;14.63;;;8.88;;
15526;SDS011;7865;50.918;4.510;2023-07-09T13:41:00;11.75;;;8.07;;
15526;SDS011;7865;50.918;4.510;2023-07-09T13:46:09;11.55;;;7.45;;
15526;SDS011;7865;50.918;4.510;2023-07-09T13:51:16;13.38;;;8.48;;
15526;SDS011;7865;50.918;4.510;2023-07-09T13:56:18;12.63;;;7.32;;
15526;SDS011;7865;50.918;4.510;2023-07-09T14:01:21;12.98;;;7.93;;
15526;SDS011;7865;50.918;4.510;2023-07-09T14:06:24;11.07;;;7.00;;
15526;SDS011;7865;50.918;4.510;2023-07-09T14:11:25;13.90;;;7.22;;
15526;SDS011;7865;50.918;4.510;2023-07-09T14:16:27;11.95;;;6.70;;
15526;SDS011;7865;50.918;4.510;2023-07-09T14:21:28;9.93;;;6.70;;
15526;SDS011;7865;50.918;4.510;2023-07-09T14:26:31;10.65;;;6.95;;
15526;SDS011;7865;50.918;4.510;2023-07-09T14:31:32;9.15;;;6.97;;
15526;SDS011;7865;50.918;4.510;2023-07-09T14:36:35;7.88;;;6.43;;
15526;SDS011;7865;50.918;4.510;2023-07-09T14:41:37;10.63;;;6.38;;
15526;SDS011;7865;50.918;4.510;2023-07-09T14:46:39;8.52;;;5.53;;
15526;SDS011;7865;50.918;4.510;2023-07-09T14:51:40;8.15;;;4.78;;
15526;SDS011;7865;50.918;4.510;2023-07-09T14:56:41;10.18;;;5.82;;
15526;SDS011;7865;50.918;4.510;2023-07-09T15:01:43;7.88;;;5.70;;
15526;SDS011;7865;50.918;4.510;2023-07-09T15:06:46;9.75;;;6.00;;
15526;SDS011;7865;50.918;4.510;2023-07-09T15:11:52;10.10;;;5.90;;
15526;SDS011;7865;50.918;4.510;2023-07-09T15:16:57;6.15;;;5.22;;
15526;SDS011;7865;50.918;4.510;2023-07-09T15:22:02;8.25;;;5.30;;
15526;SDS011;7865;50.918;4.510;2023-07-09T15:27:03;9.40;;;5.53;;
15526;SDS011;7865;50.918;4.510;2023-07-09T15:32:06;12.02;;;5.30;;
15526;SDS011;7865;50.918;4.510;2023-07-09T15:37:11;8.40;;;4.82;;
15526;SDS011;7865;50.918;4.510;2023-07-09T15:42:15;7.47;;;4.75;;
15526;SDS011;7865;50.918;4.510;2023-07-09T15:47:17;8.38;;;4.82;;
15526;SDS011;7865;50.918;4.510;2023-07-09T15:52:21;7.47;;;4.18;;
15526;SDS011;7865;50.918;4.510;2023-07-09T15:57:23;4.88;;;3.55;;
15526;SDS011;7865;50.918;4.510;2023-07-09T16:02:42;6.78;;;3.83;;
15526;SDS011;7865;50.918;4.510;2023-07-09T16:07:43;8.13;;;4.22;;
15526;SDS011;7865;50.918;4.510;2023-07-09T16:12:48;5.78;;;4.13;;
15526;SDS011;7865;50.918;4.510;2023-07-09T16:17:51;6.40;;;3.90;;
15526;SDS011;7865;50.918;4.510;2023-07-09T16:22:54;6.40;;;2.97;;
15526;SDS011;7865;50.918;4.510;2023-07-09T16:27:57;8.65;;;5.32;;
15526;SDS011;7865;50.918;4.510;2023-07-09T16:32:58;7.28;;;5.18;;
15526;SDS011;7865;50.918;4.510;2023-07-09T16:37:59;8.60;;;5.13;;
15526;SDS011;7865;50.918;4.510;2023-07-09T16:43:01;9.30;;;5.70;;
15526;SDS011;7865;50.918;4.510;2023-07-09T16:48:03;9.98;;;5.57;;
15526;SDS011;7865;50.918;4.510;2023-07-09T16:53:08;11.20;;;7.13;;
15526;SDS011;7865;50.918;4.510;2023-07-09T16:58:16;11.82;;;7.00;;
15526;SDS011;7865;50.918;4.510;2023-07-09T17:03:24;12.05;;;8.02;;
15526;SDS011;7865;50.918;4.510;2023-07-09T17:08:26;12.02;;;8.23;;
15526;SDS011;7865;50.918;4.510;2023-07-09T17:13:28;8.95;;;7.07;;
15526;SDS011;7865;50.918;4.510;2023-07-09T17:18:30;10.93;;;7.10;;
15526;SDS011;7865;50.918;4.510;2023-07-09T17:23:32;9.95;;;6.43;;
15526;SDS011;7865;50.918;4.510;2023-07-09T17:28:34;12.55;;;6.20;;
15526;SDS011;7865;50.918;4.510;2023-07-09T17:33:36;6.25;;;3.90;;
15526;SDS011;7865;50.918;4.510;2023-07-09T17:38:38;8.07;;;4.47;;
15526;SDS011;7865;50.918;4.510;2023-07-09T17:43:39;6.45;;;4.00;;
15526;SDS011;7865;50.918;4.510;2023-07-09T17:48:42;8.32;;;3.78;;
15526;SDS011;7865;50.918;4.510;2023-07-09T17:53:43;4.63;;;3.17;;
15526;SDS011;7865;50.918;4.510;2023-07-09T17:58:44;5.05;;;3.65;;
15526;SDS011;7865;50.918;4.510;2023-07-09T18:03:46;6.78;;;3.25;;
15526;SDS011;7865;50.918;4.510;2023-07-09T18:08:47;4.28;;;2.58;;
15526;SDS011;7865;50.918;4.510;2023-07-09T18:13:49;5.05;;;2.53;;
15526;SDS011;7865;50.918;4.510;2023-07-09T18:18:50;4.63;;;2.50;;
15526;SDS011;7865;50.918;4.510;2023-07-09T18:23:51;6.70;;;2.70;;
15526;SDS011;7865;50.918;4.510;2023-07-09T18:28:52;5.78;;;2.60;;
15526;SDS011;7865;50.918;4.510;2023-07-09T18:33:54;5.72;;;2.53;;
15526;SDS011;7865;50.918;4.510;2023-07-09T18:38:55;6.38;;;2.30;;
15526;SDS011;7865;50.918;4.510;2023-07-09T18:43:56;5.50;;;2.20;;
15526;SDS011;7865;50.918;4.510;2023-07-09T18:48:58;6.70;;;2.03;;
15526;SDS011;7865;50.918;4.510;2023-07-09T18:53:59;3.80;;;2.08;;
15526;SDS011;7865;50.918;4.510;2023-07-09T18:59:03;5.90;;;2.45;;
15526;SDS011;7865;50.918;4.510;2023-07-09T19:09:35;5.22;;;2.45;;
15526;SDS011;7865;50.918;4.510;2023-07-09T19:14:36;4.63;;;2.65;;
15526;SDS011;7865;50.918;4.510;2023-07-09T19:19:38;6.40;;;2.85;;
15526;SDS011;7865;50.918;4.510;2023-07-09T19:24:40;7.90;;;3.20;;
15526;SDS011;7865;50.918;4.510;2023-07-09T19:29:44;6.88;;;2.85;;
15526;SDS011;7865;50.918;4.510;2023-07-09T19:34:50;6.93;;;3.45;;
15526;SDS011;7865;50.918;4.510;2023-07-09T19:39:51;5.82;;;3.08;;
15526;SDS011;7865;50.918;4.510;2023-07-09T19:44:52;6.65;;;3.20;;
15526;SDS011;7865;50.918;4.510;2023-07-09T19:49:54;7.32;;;3.63;;
15526;SDS011;7865;50.918;4.510;2023-07-09T19:54:58;8.38;;;3.25;;
15526;SDS011;7865;50.918;4.510;2023-07-09T20:00:00;6.57;;;3.53;;
15526;SDS011;7865;50.918;4.510;2023-07-09T20:05:01;7.45;;;3.13;;
15526;SDS011;7865;50.918;4.510;2023-07-09T20:10:05;4.75;;;2.53;;
15526;SDS011;7865;50.918;4.510;2023-07-09T20:15:20;5.93;;;3.33;;
15526;SDS011;7865;50.918;4.510;2023-07-09T20:20:26;5.80;;;3.10;;
15526;SDS011;7865;50.918;4.510;2023-07-09T20:25:28;7.57;;;2.97;;
15526;SDS011;7865;50.918;4.510;2023-07-09T20:30:31;7.85;;;3.40;;
15526;SDS011;7865;50.918;4.510;2023-07-09T20:35:32;7.88;;;3.53;;
15526;SDS011;7865;50.918;4.510;2023-07-09T20:40:33;8.93;;;3.13;;
15526;SDS011;7865;50.918;4.510;2023-07-09T20:45:35;7.00;;;3.00;;
15526;SDS011;7865;50.918;4.510;2023-07-09T20:50:36;7.78;;;3.67;;
15526;SDS011;7865;50.918;4.510;2023-07-09T20:55:37;6.40;;;3.20;;
15526;SDS011;7865;50.918;4.510;2023-07-09T21:00:39;6.30;;;2.95;;
15526;SDS011;7865;50.918;4.510;2023-07-09T21:05:40;8.25;;;3.00;;
15526;SDS011;7865;50.918;4.510;2023-07-09T21:10:41;6.45;;;2.88;;
15526;SDS011;7865;50.918;4.510;2023-07-09T21:15:48;7.00;;;3.15;;
15526;SDS011;7865;50.918;4.510;2023-07-09T21:20:52;9.60;;;2.90;;
15526;SDS011;7865;50.918;4.510;2023-07-09T21:25:54;7.70;;;3.00;;
15526;SDS011;7865;50.918;4.510;2023-07-09T21:30:55;6.30;;;3.03;;
15526;SDS011;7865;50.918;4.510;2023-07-09T21:35:57;5.57;;;3.10;;
15526;SDS011;7865;50.918;4.510;2023-07-09T21:41:00;6.57;;;3.20;;
15526;SDS011;7865;50.918;4.510;2023-07-09T21:46:02;5.50;;;3.38;;
15526;SDS011;7865;50.918;4.510;2023-07-09T21:51:04;8.10;;;3.08;;
15526;SDS011;7865;50.918;4.510;2023-07-09T21:56:10;6.53;;;3.03;;
15526;SDS011;7865;50.918;4.510;2023-07-09T22:01:19;6.90;;;2.55;;
15526;SDS011;7865;50.918;4.510;2023-07-09T22:06:29;6.18;;;2.25;;
15526;SDS011;7865;50.918;4.510;2023-07-09T22:11:30;7.30;;;2.60;;
15526;SDS011;7865;50.918;4.510;2023-07-09T22:16:32;4.55;;;2.55;;
15526;SDS011;7865;50.918;4.510;2023-07-09T22:21:33;2.30;;;1.90;;
15526;SDS011;7865;50.918;4.510;2023-07-09T22:26:37;4.05;;;1.73;;
15526;SDS011;7865;50.918;4.510;2023-07-09T22:31:39;6.05;;;2.28;;
15526;SDS011;7865;50.918;4.510;2023-07-09T22:36:42;3.83;;;2.08;;
15526;SDS011;7865;50.918;4.510;2023-07-09T22:41:44;6.00;;;1.83;;
15526;SDS011;7865;50.918;4.510;2023-07-09T22:46:46;3.75;;;1.80;;
15526;SDS011;7865;50.918;4.510;2023-07-09T22:51:47;2.97;;;1.58;;
15526;SDS011;7865;50.918;4.510;2023-07-09T22:56:49;4.20;;;1.73;;
15526;SDS011;7865;50.918;4.510;2023-07-09T23:01:50;4.10;;;2.00;;
15526;SDS011;7865;50.918;4.510;2023-07-09T23:06:52;2.70;;;1.50;;
15526;SDS011;7865;50.918;4.510;2023-07-09T23:11:53;4.22;;;1.88;;
15526;SDS011;7865;50.918;4.510;2023-07-09T23:16:55;5.60;;;2.00;;
15526;SDS011;7865;50.918;4.510;2023-07-09T23:21:56;5.18;;;2.70;;
15526;SDS011;7865;50.918;4.510;2023-07-09T23:27:01;3.58;;;2.10;;
15526;SDS011;7865;50.918;4.510;2023-07-09T23:32:03;7.07;;;2.40;;
15526;SDS011;7865;50.918;4.510;2023-07-09T23:37:04;4.45;;;2.17;;
15526;SDS011;7865;50.918;4.510;2023-07-09T23:42:08;3.70;;;2.13;;
15526;SDS011;7865;50.918;4.510;2023-07-09T23:47:11;5.00;;;2.00;;
15526;SDS011;7865;50.918;4.510;2023-07-09T23:52:13;6.10;;;2.17;;
15526;SDS011;7865;50.918;4.510;2023-07-09T23:57:14;7.13;;;2.35;;
